sensor_id;sensor_type;location;lat;lon;timestamp;P1;durP1;ratioP1;P2;durP2;ratioP2
68910;SDS011;55953;51.650;-0.522;2023-02-15T00:00:13;48.70;;;23.00;;
68910;SDS011;55953;51.650;-0.522;2023-02-15T00:03:01;61.20;;;26.70;;
68910;SDS011;55953;51.650;-0.522;2023-02-15T00:05:30;51.20;;;25.90;;
68910;SDS011;55953;51.650;-0.522;2023-02-15T00:07:58;55.30;;;26.90;;
68910;SDS011;55953;51.650;-0.522;2023-02-15T00:10:26;53.10;;;25.90;;
68910;SDS011;55953;51.650;-0.522;2023-02-15T00:12:54;57.70;;;26.90;;
68910;SDS011;55953;51.650;-0.522;2023-02-15T00:15:22;63.00;;;27.30;;
68910;SDS011;55953;51.650;-0.522;2023-02-15T00:17:50;53.30;;;24.10;;
68910;SDS011;55953;51.650;-0.522;2023-02-15T00:20:17;57.20;;;26.10;;
68910;SDS011;55953;51.650;-0.522;2023-02-15T00:22:46;56.10;;;25.40;;
68910;SDS011;55953;51.650;-0.522;2023-02-15T00:25:14;53.40;;;25.10;;
68910;SDS011;55953;51.650;-0.522;2023-02-15T00:27:42;55.30;;;24.70;;
68910;SDS011;55953;51.650;-0.522;2023-02-15T00:30:11;50.20;;;23.60;;
68910;SDS011;55953;51.650;-0.522;2023-02-15T00:32:39;52.70;;;24.70;;
68910;SDS011;55953;51.650;-0.522;2023-02-15T00:35:07;51.40;;;24.70;;
68910;SDS011;55953;51.650;-0.522;2023-02-15T00:37:36;53.30;;;24.10;;
68910;SDS011;55953;51.650;-0.522;2023-02-15T00:40:05;52.00;;;24.10;;
68910;SDS011;55953;51.650;-0.522;2023-02-15T00:42:33;54.10;;;23.80;;
68910;SDS011;55953;51.650;-0.522;2023-02-15T00:45:01;54.70;;;23.90;;
68910;SDS011;55953;51.650;-0.522;2023-02-15T00:47:29;56.10;;;25.00;;
68910;SDS011;55953;51.650;-0.522;2023-02-15T00:49:57;54.40;;;24.30;;
68910;SDS011;55953;51.650;-0.522;2023-02-15T00:52:25;54.60;;;25.00;;
68910;SDS011;55953;51.650;-0.522;2023-02-15T00:54:53;53.10;;;25.10;;
68910;SDS011;55953;51.650;-0.522;2023-02-15T00:57:21;51.20;;;25.10;;
68910;SDS011;55953;51.650;-0.522;2023-02-15T00:59:48;55.60;;;25.60;;
68910;SDS011;55953;51.650;-0.522;2023-02-15T01:02:17;52.40;;;23.50;;
68910;SDS011;55953;51.650;-0.522;2023-02-15T01:04:46;48.50;;;23.70;;
68910;SDS011;55953;51.650;-0.522;2023-02-15T01:07:16;55.20;;;25.40;;
68910;SDS011;55953;51.650;-0.522;2023-02-15T01:09:44;50.90;;;25.20;;
68910;SDS011;55953;51.650;-0.522;2023-02-15T01:12:11;51.90;;;24.10;;
68910;SDS011;55953;51.650;-0.522;2023-02-15T01:14:39;48.80;;;25.10;;
68910;SDS011;55953;51.650;-0.522;2023-02-15T01:17:07;51.60;;;24.70;;
68910;SDS011;55953;51.650;-0.522;2023-02-15T01:19:35;51.40;;;23.20;;
68910;SDS011;55953;51.650;-0.522;2023-02-15T01:22:03;51.60;;;25.20;;
68910;SDS011;55953;51.650;-0.522;2023-02-15T01:27:02;53.00;;;23.60;;
68910;SDS011;55953;51.650;-0.522;2023-02-15T01:29:30;50.50;;;24.50;;
68910;SDS011;55953;51.650;-0.522;2023-02-15T01:31:58;50.90;;;23.40;;
68910;SDS011;55953;51.650;-0.522;2023-02-15T01:34:26;49.40;;;24.20;;
68910;SDS011;55953;51.650;-0.522;2023-02-15T01:36:54;50.50;;;23.90;;
68910;SDS011;55953;51.650;-0.522;2023-02-15T01:39:22;53.90;;;25.00;;
68910;SDS011;55953;51.650;-0.522;2023-02-15T01:41:50;50.10;;;23.90;;
68910;SDS011;55953;51.650;-0.522;2023-02-15T01:44:48;57.40;;;24.40;;
68910;SDS011;55953;51.650;-0.522;2023-02-15T01:47:41;48.80;;;24.10;;
68910;SDS011;55953;51.650;-0.522;2023-02-15T01:56:04;49.70;;;23.10;;
68910;SDS011;55953;51.650;-0.522;2023-02-15T01:58:35;49.60;;;22.80;;
68910;SDS011;55953;51.650;-0.522;2023-02-15T02:01:06;48.60;;;22.30;;
68910;SDS011;55953;51.650;-0.522;2023-02-15T02:06:14;52.30;;;24.30;;
68910;SDS011;55953;51.650;-0.522;2023-02-15T02:08:43;53.90;;;23.60;;
68910;SDS011;55953;51.650;-0.522;2023-02-15T02:11:13;50.30;;;23.10;;
68910;SDS011;55953;51.650;-0.522;2023-02-15T02:13:43;43.60;;;22.10;;
68910;SDS011;55953;51.650;-0.522;2023-02-15T02:16:43;46.50;;;22.00;;
68910;SDS011;55953;51.650;-0.522;2023-02-15T02:20:03;47.50;;;22.40;;
68910;SDS011;55953;51.650;-0.522;2023-02-15T02:35:15;49.50;;;22.70;;
68910;SDS011;55953;51.650;-0.522;2023-02-15T02:38:03;52.10;;;22.50;;
68910;SDS011;55953;51.650;-0.522;2023-02-15T02:41:17;52.20;;;22.80;;
68910;SDS011;55953;51.650;-0.522;2023-02-15T02:43:59;47.60;;;22.40;;
68910;SDS011;55953;51.650;-0.522;2023-02-15T02:46:51;49.70;;;22.50;;
68910;SDS011;55953;51.650;-0.522;2023-02-15T02:49:34;48.50;;;23.00;;
68910;SDS011;55953;51.650;-0.522;2023-02-15T02:52:06;54.80;;;23.90;;
68910;SDS011;55953;51.650;-0.522;2023-02-15T02:54:56;48.10;;;22.10;;
68910;SDS011;55953;51.650;-0.522;2023-02-15T02:57:26;48.10;;;22.70;;
68910;SDS011;55953;51.650;-0.522;2023-02-15T02:59:56;52.50;;;23.10;;
68910;SDS011;55953;51.650;-0.522;2023-02-15T03:02:38;57.20;;;24.80;;
68910;SDS011;55953;51.650;-0.522;2023-02-15T03:05:15;48.20;;;24.10;;
68910;SDS011;55953;51.650;-0.522;2023-02-15T03:07:49;48.10;;;22.70;;
68910;SDS011;55953;51.650;-0.522;2023-02-15T03:10:22;53.10;;;23.10;;
68910;SDS011;55953;51.650;-0.522;2023-02-15T03:12:52;52.40;;;23.70;;
68910;SDS011;55953;51.650;-0.522;2023-02-15T03:15:24;51.60;;;23.00;;
68910;SDS011;55953;51.650;-0.522;2023-02-15T03:18:18;47.40;;;22.40;;
68910;SDS011;55953;51.650;-0.522;2023-02-15T03:20:50;51.60;;;23.60;;
68910;SDS011;55953;51.650;-0.522;2023-02-15T03:23:22;52.90;;;23.00;;
68910;SDS011;55953;51.650;-0.522;2023-02-15T03:25:57;47.40;;;22.70;;
68910;SDS011;55953;51.650;-0.522;2023-02-15T03:28:41;50.10;;;23.50;;
68910;SDS011;55953;51.650;-0.522;2023-02-15T03:31:13;50.70;;;23.80;;
68910;SDS011;55953;51.650;-0.522;2023-02-15T03:34:02;48.30;;;23.20;;
68910;SDS011;55953;51.650;-0.522;2023-02-15T03:40:07;49.80;;;22.00;;
68910;SDS011;55953;51.650;-0.522;2023-02-15T03:43:24;48.20;;;21.50;;
68910;SDS011;55953;51.650;-0.522;2023-02-15T03:46:34;47.60;;;20.80;;
68910;SDS011;55953;51.650;-0.522;2023-02-15T03:49:16;53.50;;;23.20;;
68910;SDS011;55953;51.650;-0.522;2023-02-15T03:51:51;49.80;;;23.20;;
68910;SDS011;55953;51.650;-0.522;2023-02-15T03:54:28;52.20;;;24.10;;
68910;SDS011;55953;51.650;-0.522;2023-02-15T03:57:24;48.80;;;23.00;;
68910;SDS011;55953;51.650;-0.522;2023-02-15T04:05:44;50.80;;;24.10;;
68910;SDS011;55953;51.650;-0.522;2023-02-15T04:08:12;49.90;;;23.00;;
68910;SDS011;55953;51.650;-0.522;2023-02-15T04:10:40;50.10;;;23.20;;
68910;SDS011;55953;51.650;-0.522;2023-02-15T04:13:29;49.70;;;23.20;;
68910;SDS011;55953;51.650;-0.522;2023-02-15T04:15:59;50.90;;;22.10;;
68910;SDS011;55953;51.650;-0.522;2023-02-15T04:18:39;48.80;;;22.40;;
68910;SDS011;55953;51.650;-0.522;2023-02-15T04:21:29;48.70;;;21.90;;
68910;SDS011;55953;51.650;-0.522;2023-02-15T04:24:16;49.40;;;23.60;;
68910;SDS011;55953;51.650;-0.522;2023-02-15T04:27:04;53.20;;;23.50;;
68910;SDS011;55953;51.650;-0.522;2023-02-15T04:29:33;50.60;;;23.40;;
68910;SDS011;55953;51.650;-0.522;2023-02-15T04:32:01;50.30;;;21.40;;
68910;SDS011;55953;51.650;-0.522;2023-02-15T04:34:30;51.90;;;24.20;;
68910;SDS011;55953;51.650;-0.522;2023-02-15T04:36:57;50.00;;;22.20;;
68910;SDS011;55953;51.650;-0.522;2023-02-15T04:39:25;51.90;;;22.70;;
68910;SDS011;55953;51.650;-0.522;2023-02-15T04:41:53;50.50;;;23.60;;
68910;SDS011;55953;51.650;-0.522;2023-02-15T04:44:21;50.30;;;24.40;;
68910;SDS011;55953;51.650;-0.522;2023-02-15T04:46:49;49.20;;;21.90;;
68910;SDS011;55953;51.650;-0.522;2023-02-15T04:49:17;49.60;;;21.50;;
68910;SDS011;55953;51.650;-0.522;2023-02-15T04:51:45;48.20;;;22.40;;
68910;SDS011;55953;51.650;-0.522;2023-02-15T04:54:12;43.80;;;20.40;;
68910;SDS011;55953;51.650;-0.522;2023-02-15T04:56:42;45.70;;;20.70;;
68910;SDS011;55953;51.650;-0.522;2023-02-15T04:59:10;47.00;;;21.80;;
68910;SDS011;55953;51.650;-0.522;2023-02-15T05:01:38;51.10;;;22.90;;
68910;SDS011;55953;51.650;-0.522;2023-02-15T05:04:07;48.20;;;22.20;;
68910;SDS011;55953;51.650;-0.522;2023-02-15T05:06:35;47.20;;;22.00;;
68910;SDS011;55953;51.650;-0.522;2023-02-15T05:09:03;47.80;;;21.30;;
68910;SDS011;55953;51.650;-0.522;2023-02-15T05:11:31;50.60;;;21.80;;
68910;SDS011;55953;51.650;-0.522;2023-02-15T05:13:59;46.90;;;21.80;;
68910;SDS011;55953;51.650;-0.522;2023-02-15T05:16:26;47.20;;;21.40;;
68910;SDS011;55953;51.650;-0.522;2023-02-15T05:18:55;46.20;;;21.80;;
68910;SDS011;55953;51.650;-0.522;2023-02-15T05:21:23;49.10;;;22.60;;
68910;SDS011;55953;51.650;-0.522;2023-02-15T05:23:51;47.20;;;22.60;;
68910;SDS011;55953;51.650;-0.522;2023-02-15T05:26:22;51.50;;;22.00;;
68910;SDS011;55953;51.650;-0.522;2023-02-15T05:29:10;48.50;;;22.40;;
68910;SDS011;55953;51.650;-0.522;2023-02-15T05:31:38;51.90;;;22.70;;
68910;SDS011;55953;51.650;-0.522;2023-02-15T05:34:06;51.00;;;22.90;;
68910;SDS011;55953;51.650;-0.522;2023-02-15T05:36:34;55.00;;;24.10;;
68910;SDS011;55953;51.650;-0.522;2023-02-15T05:39:02;54.40;;;23.60;;
68910;SDS011;55953;51.650;-0.522;2023-02-15T05:41:33;50.70;;;23.10;;
68910;SDS011;55953;51.650;-0.522;2023-02-15T05:44:01;52.90;;;24.70;;
68910;SDS011;55953;51.650;-0.522;2023-02-15T05:46:28;60.40;;;27.10;;
68910;SDS011;55953;51.650;-0.522;2023-02-15T05:48:56;66.00;;;26.20;;
68910;SDS011;55953;51.650;-0.522;2023-02-15T05:51:24;62.60;;;25.70;;
68910;SDS011;55953;51.650;-0.522;2023-02-15T05:53:52;59.10;;;25.20;;
68910;SDS011;55953;51.650;-0.522;2023-02-15T05:56:20;61.40;;;27.40;;
68910;SDS011;55953;51.650;-0.522;2023-02-15T05:58:49;61.20;;;25.10;;
68910;SDS011;55953;51.650;-0.522;2023-02-15T06:01:18;61.40;;;25.70;;
68910;SDS011;55953;51.650;-0.522;2023-02-15T06:03:48;56.90;;;24.30;;
68910;SDS011;55953;51.650;-0.522;2023-02-15T06:06:17;63.30;;;26.30;;
68910;SDS011;55953;51.650;-0.522;2023-02-15T06:08:45;57.60;;;25.40;;
68910;SDS011;55953;51.650;-0.522;2023-02-15T06:11:13;52.70;;;23.80;;
68910;SDS011;55953;51.650;-0.522;2023-02-15T06:13:41;56.20;;;24.50;;
68910;SDS011;55953;51.650;-0.522;2023-02-15T06:16:09;56.80;;;23.80;;
68910;SDS011;55953;51.650;-0.522;2023-02-15T06:18:37;50.20;;;23.30;;
68910;SDS011;55953;51.650;-0.522;2023-02-15T06:21:05;55.00;;;24.00;;
68910;SDS011;55953;51.650;-0.522;2023-02-15T06:23:33;52.00;;;25.70;;
68910;SDS011;55953;51.650;-0.522;2023-02-15T06:26:00;56.30;;;24.20;;
68910;SDS011;55953;51.650;-0.522;2023-02-15T06:28:29;56.30;;;25.30;;
68910;SDS011;55953;51.650;-0.522;2023-02-15T06:30:57;53.90;;;23.90;;
68910;SDS011;55953;51.650;-0.522;2023-02-15T06:33:25;51.80;;;24.40;;
68910;SDS011;55953;51.650;-0.522;2023-02-15T06:35:53;54.60;;;24.50;;
68910;SDS011;55953;51.650;-0.522;2023-02-15T06:38:21;58.10;;;25.60;;
68910;SDS011;55953;51.650;-0.522;2023-02-15T06:40:49;54.60;;;24.80;;
68910;SDS011;55953;51.650;-0.522;2023-02-15T06:43:16;55.20;;;23.80;;
68910;SDS011;55953;51.650;-0.522;2023-02-15T06:45:44;56.70;;;24.90;;
68910;SDS011;55953;51.650;-0.522;2023-02-15T06:48:12;58.70;;;26.30;;
68910;SDS011;55953;51.650;-0.522;2023-02-15T06:50:40;58.80;;;26.60;;
68910;SDS011;55953;51.650;-0.522;2023-02-15T06:53:08;63.90;;;27.50;;
68910;SDS011;55953;51.650;-0.522;2023-02-15T06:55:36;58.30;;;26.90;;
68910;SDS011;55953;51.650;-0.522;2023-02-15T06:58:04;61.20;;;27.10;;
68910;SDS011;55953;51.650;-0.522;2023-02-15T07:00:32;62.70;;;26.30;;
68910;SDS011;55953;51.650;-0.522;2023-02-15T07:03:02;63.40;;;28.80;;
68910;SDS011;55953;51.650;-0.522;2023-02-15T07:05:33;67.80;;;27.00;;
68910;SDS011;55953;51.650;-0.522;2023-02-15T07:10:31;73.00;;;29.70;;
68910;SDS011;55953;51.650;-0.522;2023-02-15T07:12:59;78.50;;;32.20;;
68910;SDS011;55953;51.650;-0.522;2023-02-15T07:15:26;74.80;;;30.90;;
68910;SDS011;55953;51.650;-0.522;2023-02-15T07:17:54;73.70;;;32.10;;
68910;SDS011;55953;51.650;-0.522;2023-02-15T07:20:23;60.70;;;26.80;;
68910;SDS011;55953;51.650;-0.522;2023-02-15T07:22:51;58.00;;;26.20;;
68910;SDS011;55953;51.650;-0.522;2023-02-15T07:25:19;62.70;;;27.40;;
68910;SDS011;55953;51.650;-0.522;2023-02-15T07:27:47;75.70;;;31.40;;
68910;SDS011;55953;51.650;-0.522;2023-02-15T07:30:16;65.10;;;28.70;;
68910;SDS011;55953;51.650;-0.522;2023-02-15T07:32:45;68.40;;;29.70;;
68910;SDS011;55953;51.650;-0.522;2023-02-15T07:35:33;64.50;;;26.50;;
68910;SDS011;55953;51.650;-0.522;2023-02-15T07:38:01;65.30;;;29.20;;
68910;SDS011;55953;51.650;-0.522;2023-02-15T07:40:29;65.60;;;28.20;;
68910;SDS011;55953;51.650;-0.522;2023-02-15T07:42:58;71.90;;;31.50;;
68910;SDS011;55953;51.650;-0.522;2023-02-15T07:45:26;79.40;;;32.20;;
68910;SDS011;55953;51.650;-0.522;2023-02-15T07:47:54;73.50;;;30.70;;
68910;SDS011;55953;51.650;-0.522;2023-02-15T07:50:22;69.40;;;30.80;;
68910;SDS011;55953;51.650;-0.522;2023-02-15T07:52:50;76.00;;;30.70;;
68910;SDS011;55953;51.650;-0.522;2023-02-15T07:55:19;78.10;;;31.40;;
68910;SDS011;55953;51.650;-0.522;2023-02-15T07:57:48;72.50;;;32.10;;
68910;SDS011;55953;51.650;-0.522;2023-02-15T08:00:19;74.60;;;32.20;;
68910;SDS011;55953;51.650;-0.522;2023-02-15T08:02:54;65.50;;;28.50;;
68910;SDS011;55953;51.650;-0.522;2023-02-15T08:05:43;63.00;;;28.80;;
68910;SDS011;55953;51.650;-0.522;2023-02-15T08:08:12;65.00;;;28.50;;
68910;SDS011;55953;51.650;-0.522;2023-02-15T08:13:51;77.30;;;31.90;;
68910;SDS011;55953;51.650;-0.522;2023-02-15T08:16:53;70.60;;;30.30;;
68910;SDS011;55953;51.650;-0.522;2023-02-15T08:19:28;69.70;;;29.50;;
68910;SDS011;55953;51.650;-0.522;2023-02-15T08:22:00;75.20;;;30.90;;
68910;SDS011;55953;51.650;-0.522;2023-02-15T08:24:35;65.80;;;29.50;;
68910;SDS011;55953;51.650;-0.522;2023-02-15T08:27:09;66.80;;;29.70;;
68910;SDS011;55953;51.650;-0.522;2023-02-15T08:29:38;61.10;;;27.40;;
68910;SDS011;55953;51.650;-0.522;2023-02-15T08:32:10;60.60;;;28.20;;
68910;SDS011;55953;51.650;-0.522;2023-02-15T08:34:41;62.50;;;27.90;;
68910;SDS011;55953;51.650;-0.522;2023-02-15T08:37:10;62.50;;;29.30;;
68910;SDS011;55953;51.650;-0.522;2023-02-15T08:39:39;65.40;;;28.00;;
68910;SDS011;55953;51.650;-0.522;2023-02-15T08:42:07;60.80;;;29.20;;
68910;SDS011;55953;51.650;-0.522;2023-02-15T08:44:34;64.40;;;28.90;;
68910;SDS011;55953;51.650;-0.522;2023-02-15T08:47:02;65.70;;;29.70;;
68910;SDS011;55953;51.650;-0.522;2023-02-15T08:49:31;61.60;;;29.60;;
68910;SDS011;55953;51.650;-0.522;2023-02-15T08:51:59;65.60;;;30.60;;
68910;SDS011;55953;51.650;-0.522;2023-02-15T08:54:27;64.80;;;28.80;;
68910;SDS011;55953;51.650;-0.522;2023-02-15T08:56:55;71.20;;;32.20;;
68910;SDS011;55953;51.650;-0.522;2023-02-15T08:59:23;71.30;;;32.30;;
68910;SDS011;55953;51.650;-0.522;2023-02-15T09:01:53;76.90;;;34.00;;
68910;SDS011;55953;51.650;-0.522;2023-02-15T09:04:21;91.90;;;40.20;;
68910;SDS011;55953;51.650;-0.522;2023-02-15T09:06:50;106.30;;;46.20;;
68910;SDS011;55953;51.650;-0.522;2023-02-15T09:09:19;101.30;;;45.10;;
68910;SDS011;55953;51.650;-0.522;2023-02-15T09:11:49;99.40;;;42.60;;
68910;SDS011;55953;51.650;-0.522;2023-02-15T09:14:26;91.20;;;40.60;;
68910;SDS011;55953;51.650;-0.522;2023-02-15T09:16:54;93.70;;;40.50;;
68910;SDS011;55953;51.650;-0.522;2023-02-15T09:19:23;88.70;;;39.60;;
68910;SDS011;55953;51.650;-0.522;2023-02-15T09:21:51;90.40;;;40.40;;
68910;SDS011;55953;51.650;-0.522;2023-02-15T09:24:20;86.90;;;38.30;;
68910;SDS011;55953;51.650;-0.522;2023-02-15T09:26:49;84.40;;;37.50;;
68910;SDS011;55953;51.650;-0.522;2023-02-15T09:29:18;89.50;;;38.60;;
68910;SDS011;55953;51.650;-0.522;2023-02-15T09:31:48;84.30;;;38.50;;
68910;SDS011;55953;51.650;-0.522;2023-02-15T09:34:20;85.90;;;39.90;;
68910;SDS011;55953;51.650;-0.522;2023-02-15T09:48:29;81.10;;;36.80;;
68910;SDS011;55953;51.650;-0.522;2023-02-15T09:54:42;79.80;;;36.30;;
68910;SDS011;55953;51.650;-0.522;2023-02-15T09:58:24;82.30;;;38.20;;
68910;SDS011;55953;51.650;-0.522;2023-02-15T10:00:47;81.50;;;36.80;;
68910;SDS011;55953;51.650;-0.522;2023-02-15T10:27:49;76.30;;;35.60;;
68910;SDS011;55953;51.650;-0.522;2023-02-15T10:30:34;79.00;;;37.10;;
68910;SDS011;55953;51.650;-0.522;2023-02-15T10:33:39;70.50;;;33.30;;
68910;SDS011;55953;51.650;-0.522;2023-02-15T10:43:10;73.40;;;33.30;;
68910;SDS011;55953;51.650;-0.522;2023-02-15T10:46:15;64.80;;;31.30;;
68910;SDS011;55953;51.650;-0.522;2023-02-15T10:52:14;64.00;;;31.60;;
68910;SDS011;55953;51.650;-0.522;2023-02-15T10:54:49;69.00;;;32.70;;
68910;SDS011;55953;51.650;-0.522;2023-02-15T11:00:18;65.00;;;32.40;;
68910;SDS011;55953;51.650;-0.522;2023-02-15T11:05:47;58.30;;;28.70;;
68910;SDS011;55953;51.650;-0.522;2023-02-15T11:08:18;63.40;;;29.40;;
68910;SDS011;55953;51.650;-0.522;2023-02-15T11:10:51;62.40;;;29.20;;
68910;SDS011;55953;51.650;-0.522;2023-02-15T11:13:24;68.50;;;30.20;;
68910;SDS011;55953;51.650;-0.522;2023-02-15T11:16:00;59.40;;;29.30;;
68910;SDS011;55953;51.650;-0.522;2023-02-15T11:18:39;55.90;;;27.40;;
68910;SDS011;55953;51.650;-0.522;2023-02-15T11:21:32;58.30;;;28.40;;
68910;SDS011;55953;51.650;-0.522;2023-02-15T11:24:14;53.70;;;26.90;;
68910;SDS011;55953;51.650;-0.522;2023-02-15T11:27:01;56.30;;;25.30;;
68910;SDS011;55953;51.650;-0.522;2023-02-15T11:34:59;54.30;;;27.00;;
68910;SDS011;55953;51.650;-0.522;2023-02-15T11:41:10;54.70;;;26.60;;
68910;SDS011;55953;51.650;-0.522;2023-02-15T11:46:18;49.10;;;25.00;;
68910;SDS011;55953;51.650;-0.522;2023-02-15T11:48:49;47.70;;;24.30;;
68910;SDS011;55953;51.650;-0.522;2023-02-15T11:51:20;44.70;;;23.80;;
68910;SDS011;55953;51.650;-0.522;2023-02-15T11:53:51;46.00;;;23.50;;
68910;SDS011;55953;51.650;-0.522;2023-02-15T11:56:21;42.40;;;22.80;;
68910;SDS011;55953;51.650;-0.522;2023-02-15T11:59:10;44.80;;;24.00;;
68910;SDS011;55953;51.650;-0.522;2023-02-15T12:01:45;43.80;;;22.50;;
68910;SDS011;55953;51.650;-0.522;2023-02-15T12:04:24;43.60;;;20.90;;
68910;SDS011;55953;51.650;-0.522;2023-02-15T12:07:01;40.80;;;20.80;;
68910;SDS011;55953;51.650;-0.522;2023-02-15T12:12:39;37.60;;;19.40;;
68910;SDS011;55953;51.650;-0.522;2023-02-15T12:15:10;39.50;;;20.00;;
68910;SDS011;55953;51.650;-0.522;2023-02-15T12:17:42;41.80;;;20.20;;
68910;SDS011;55953;51.650;-0.522;2023-02-15T12:22:53;35.00;;;19.60;;
68910;SDS011;55953;51.650;-0.522;2023-02-15T12:25:53;34.30;;;19.10;;
68910;SDS011;55953;51.650;-0.522;2023-02-15T12:28:42;40.00;;;19.50;;
68910;SDS011;55953;51.650;-0.522;2023-02-15T12:31:22;35.70;;;17.00;;
68910;SDS011;55953;51.650;-0.522;2023-02-15T12:33:56;32.00;;;16.50;;
68910;SDS011;55953;51.650;-0.522;2023-02-15T12:36:40;30.40;;;16.10;;
68910;SDS011;55953;51.650;-0.522;2023-02-15T12:44:24;30.60;;;16.90;;
68910;SDS011;55953;51.650;-0.522;2023-02-15T12:49:44;29.90;;;16.40;;
68910;SDS011;55953;51.650;-0.522;2023-02-15T12:54:46;27.70;;;15.20;;
68910;SDS011;55953;51.650;-0.522;2023-02-15T12:57:30;30.20;;;16.70;;
68910;SDS011;55953;51.650;-0.522;2023-02-15T13:00:04;31.10;;;17.10;;
68910;SDS011;55953;51.650;-0.522;2023-02-15T13:02:47;33.90;;;17.60;;
68910;SDS011;55953;51.650;-0.522;2023-02-15T13:05:34;31.70;;;16.70;;
68910;SDS011;55953;51.650;-0.522;2023-02-15T13:08:17;28.10;;;16.30;;
68910;SDS011;55953;51.650;-0.522;2023-02-15T13:13:33;32.70;;;15.30;;
68910;SDS011;55953;51.650;-0.522;2023-02-15T13:16:13;26.60;;;14.30;;
68910;SDS011;55953;51.650;-0.522;2023-02-15T13:18:44;24.60;;;12.80;;
68910;SDS011;55953;51.650;-0.522;2023-02-15T13:21:23;19.90;;;12.20;;
68910;SDS011;55953;51.650;-0.522;2023-02-15T13:24:04;25.40;;;10.80;;
68910;SDS011;55953;51.650;-0.522;2023-02-15T13:26:38;20.20;;;10.50;;
68910;SDS011;55953;51.650;-0.522;2023-02-15T13:29:18;20.70;;;10.20;;
68910;SDS011;55953;51.650;-0.522;2023-02-15T13:31:52;19.80;;;9.90;;
68910;SDS011;55953;51.650;-0.522;2023-02-15T13:34:34;20.90;;;10.10;;
68910;SDS011;55953;51.650;-0.522;2023-02-15T13:43:20;20.40;;;10.40;;
68910;SDS011;55953;51.650;-0.522;2023-02-15T13:52:20;18.90;;;9.70;;
68910;SDS011;55953;51.650;-0.522;2023-02-15T13:54:59;21.40;;;10.00;;
68910;SDS011;55953;51.650;-0.522;2023-02-15T13:58:03;17.60;;;9.70;;
68910;SDS011;55953;51.650;-0.522;2023-02-15T14:00:46;18.00;;;9.50;;
68910;SDS011;55953;51.650;-0.522;2023-02-15T14:26:45;19.20;;;9.90;;
68910;SDS011;55953;51.650;-0.522;2023-02-15T14:34:55;23.90;;;10.10;;
68910;SDS011;55953;51.650;-0.522;2023-02-15T14:46:44;22.70;;;10.00;;
68910;SDS011;55953;51.650;-0.522;2023-02-15T14:49:26;20.10;;;10.00;;
68910;SDS011;55953;51.650;-0.522;2023-02-15T14:52:05;19.30;;;9.50;;
68910;SDS011;55953;51.650;-0.522;2023-02-15T14:59:45;20.00;;;10.00;;
68910;SDS011;55953;51.650;-0.522;2023-02-15T15:05:32;19.00;;;9.60;;
68910;SDS011;55953;51.650;-0.522;2023-02-15T15:08:03;19.00;;;9.50;;
68910;SDS011;55953;51.650;-0.522;2023-02-15T15:10:44;20.00;;;9.70;;
68910;SDS011;55953;51.650;-0.522;2023-02-15T15:13:51;19.40;;;9.50;;
68910;SDS011;55953;51.650;-0.522;2023-02-15T15:19:10;17.30;;;9.40;;
68910;SDS011;55953;51.650;-0.522;2023-02-15T15:32:56;21.70;;;9.90;;
68910;SDS011;55953;51.650;-0.522;2023-02-15T15:36:31;18.90;;;9.50;;
68910;SDS011;55953;51.650;-0.522;2023-02-15T15:41:43;21.10;;;9.40;;
68910;SDS011;55953;51.650;-0.522;2023-02-15T15:50:11;18.60;;;8.50;;
68910;SDS011;55953;51.650;-0.522;2023-02-15T15:52:48;19.00;;;9.90;;
68910;SDS011;55953;51.650;-0.522;2023-02-15T15:55:21;20.10;;;9.50;;
68910;SDS011;55953;51.650;-0.522;2023-02-15T15:57:53;16.60;;;8.90;;
68910;SDS011;55953;51.650;-0.522;2023-02-15T16:03:20;20.90;;;9.10;;
68910;SDS011;55953;51.650;-0.522;2023-02-15T16:05:50;18.10;;;9.40;;
68910;SDS011;55953;51.650;-0.522;2023-02-15T16:08:31;16.20;;;9.40;;
68910;SDS011;55953;51.650;-0.522;2023-02-15T16:11:10;17.70;;;8.70;;
68910;SDS011;55953;51.650;-0.522;2023-02-15T16:13:42;17.70;;;9.20;;
68910;SDS011;55953;51.650;-0.522;2023-02-15T16:16:12;19.20;;;9.10;;
68910;SDS011;55953;51.650;-0.522;2023-02-15T16:18:47;15.90;;;8.70;;
68910;SDS011;55953;51.650;-0.522;2023-02-15T16:21:19;18.00;;;9.10;;
68910;SDS011;55953;51.650;-0.522;2023-02-15T16:24:03;18.10;;;8.60;;
68910;SDS011;55953;51.650;-0.522;2023-02-15T16:29:30;15.80;;;8.20;;
68910;SDS011;55953;51.650;-0.522;2023-02-15T16:32:19;18.60;;;9.10;;
68910;SDS011;55953;51.650;-0.522;2023-02-15T16:35:00;18.60;;;8.10;;
68910;SDS011;55953;51.650;-0.522;2023-02-15T16:37:34;19.40;;;7.70;;
68910;SDS011;55953;51.650;-0.522;2023-02-15T16:40:02;15.30;;;7.60;;
68910;SDS011;55953;51.650;-0.522;2023-02-15T16:42:30;15.00;;;7.30;;
68910;SDS011;55953;51.650;-0.522;2023-02-15T16:47:40;21.00;;;7.80;;
68910;SDS011;55953;51.650;-0.522;2023-02-15T16:50:18;14.40;;;7.60;;
68910;SDS011;55953;51.650;-0.522;2023-02-15T16:52:51;16.60;;;8.20;;
68910;SDS011;55953;51.650;-0.522;2023-02-15T16:55:22;14.70;;;6.90;;
68910;SDS011;55953;51.650;-0.522;2023-02-15T16:57:56;16.20;;;7.60;;
68910;SDS011;55953;51.650;-0.522;2023-02-15T17:00:31;14.70;;;7.40;;
68910;SDS011;55953;51.650;-0.522;2023-02-15T17:05:46;16.90;;;6.80;;
68910;SDS011;55953;51.650;-0.522;2023-02-15T17:08:25;20.50;;;6.70;;
68910;SDS011;55953;51.650;-0.522;2023-02-15T17:11:05;19.00;;;7.40;;
68910;SDS011;55953;51.650;-0.522;2023-02-15T17:13:37;15.70;;;6.70;;
68910;SDS011;55953;51.650;-0.522;2023-02-15T17:16:23;14.90;;;7.50;;
68910;SDS011;55953;51.650;-0.522;2023-02-15T17:18:55;15.50;;;6.60;;
68910;SDS011;55953;51.650;-0.522;2023-02-15T17:21:35;14.90;;;6.90;;
68910;SDS011;55953;51.650;-0.522;2023-02-15T17:24:19;19.10;;;6.90;;
68910;SDS011;55953;51.650;-0.522;2023-02-15T17:26:55;14.90;;;6.70;;
68910;SDS011;55953;51.650;-0.522;2023-02-15T17:29:34;14.50;;;6.70;;
68910;SDS011;55953;51.650;-0.522;2023-02-15T17:32:14;16.00;;;6.90;;
68910;SDS011;55953;51.650;-0.522;2023-02-15T17:34:49;16.60;;;6.30;;
68910;SDS011;55953;51.650;-0.522;2023-02-15T17:37:31;16.70;;;7.70;;
68910;SDS011;55953;51.650;-0.522;2023-02-15T17:40:25;17.10;;;8.00;;
68910;SDS011;55953;51.650;-0.522;2023-02-15T17:42:55;14.90;;;7.20;;
68910;SDS011;55953;51.650;-0.522;2023-02-15T17:45:40;14.60;;;7.30;;
68910;SDS011;55953;51.650;-0.522;2023-02-15T17:48:24;15.30;;;6.90;;
68910;SDS011;55953;51.650;-0.522;2023-02-15T17:51:00;15.20;;;6.60;;
68910;SDS011;55953;51.650;-0.522;2023-02-15T17:53:30;18.40;;;7.00;;
68910;SDS011;55953;51.650;-0.522;2023-02-15T17:55:58;14.20;;;7.80;;
68910;SDS011;55953;51.650;-0.522;2023-02-15T17:58:26;16.10;;;7.50;;
68910;SDS011;55953;51.650;-0.522;2023-02-15T18:00:56;16.50;;;7.10;;
68910;SDS011;55953;51.650;-0.522;2023-02-15T18:03:47;15.00;;;7.10;;
68910;SDS011;55953;51.650;-0.522;2023-02-15T18:06:39;18.90;;;8.30;;
68910;SDS011;55953;51.650;-0.522;2023-02-15T18:09:27;18.60;;;8.10;;
68910;SDS011;55953;51.650;-0.522;2023-02-15T18:12:22;15.00;;;7.80;;
68910;SDS011;55953;51.650;-0.522;2023-02-15T18:14:52;18.40;;;8.50;;
68910;SDS011;55953;51.650;-0.522;2023-02-15T18:17:27;17.50;;;8.80;;
68910;SDS011;55953;51.650;-0.522;2023-02-15T18:19:55;22.90;;;9.40;;
68910;SDS011;55953;51.650;-0.522;2023-02-15T18:22:23;23.90;;;10.00;;
68910;SDS011;55953;51.650;-0.522;2023-02-15T18:24:51;21.40;;;9.40;;
68910;SDS011;55953;51.650;-0.522;2023-02-15T18:27:19;23.40;;;9.70;;
68910;SDS011;55953;51.650;-0.522;2023-02-15T18:29:47;22.20;;;9.30;;